Time;durP1;ratioP1;P1;durP2;ratioP2;P2;SDS_P1;SDS_P2;PMS_P1;PMS_P2;Temp;Humidity;BMP_temperature;BMP_pressure;BME280_temperature;BME280_humidity;BME280_pressure;Samples;Min_cycle;Max_cycle;Signal;HPM_P1;HPM_P2
2023/03/31 00:01:25;;;;;;;0.10;0.10;;;;;;;13.02;73.75;97995.34;7353633;19;20006;-59
2023/03/31 00:03:50;;;;;;;0.00;0.00;;;;;;;13.02;74.38;97997.94;7354795;19;20011;-59
2023/03/31 00:06:18;;;;;;;0.08;0.08;;;;;;;12.91;74.49;97974.38;7355599;19;20565;-58
2023/03/31 00:08:46;;;;;;;0.00;0.00;;;;;;;12.94;74.67;97984.63;7355280;19;20010;-59
2023/03/31 00:11:11;;;;;;;0.00;0.00;;;;;;;12.99;74.61;97992.97;7354569;19;20442;-59
2023/03/31 00:13:37;;;;;;;0.03;0.03;;;;;;;12.99;73.39;97987.72;7354353;19;20094;-59
2023/03/31 00:16:06;;;;;;;0.10;0.10;;;;;;;12.98;73.70;97984.28;7350019;19;20545;-59
2023/03/31 00:18:31;;;;;;;0.10;0.10;;;;;;;12.94;74.67;97982.84;7348873;19;20014;-59
2023/03/31 00:21:23;;;;;;;0.10;0.10;;;;;;;12.92;73.67;97970.78;7352856;19;21408;-59
2023/03/31 00:24:08;;;;;;;0.00;0.00;;;;;;;12.91;74.75;97958.66;7232028;19;2004279;-59
2023/03/31 00:26:34;;;;;;;0.00;0.00;;;;;;;12.90;74.88;97962.22;7354177;19;20486;-59
2023/03/31 00:29:01;;;;;;;0.10;0.10;;;;;;;12.89;74.32;97960.56;7352015;19;20083;-57
2023/03/31 00:31:27;;;;;;;0.00;0.00;;;;;;;12.87;74.42;97962.44;7353678;19;20051;-59
2023/03/31 00:33:53;;;;;;;0.03;0.03;;;;;;;12.72;74.65;97933.88;7352876;19;20037;-59
2023/03/31 00:36:26;;;;;;;0.00;0.00;;;;;;;12.83;75.23;97945.31;7353389;19;20467;-58
2023/03/31 00:38:58;;;;;;;0.00;0.00;;;;;;;12.81;74.60;97948.03;7355451;19;20021;-58
2023/03/31 00:41:24;;;;;;;0.00;0.00;;;;;;;12.78;74.80;97942.22;7354302;19;20017;-59
2023/03/31 00:44:23;;;;;;;0.05;0.05;;;;;;;12.78;73.17;97936.97;7356007;19;21370;-60
2023/03/31 00:47:02;;;;;;;0.00;0.00;;;;;;;12.74;74.96;97936.38;7252241;19;2004473;-58
2023/03/31 00:49:32;;;;;;;0.00;0.00;;;;;;;12.72;74.36;97936.50;7352552;19;20002;-58
2023/03/31 00:52:20;;;;;;;0.00;0.00;;;;;;;12.70;74.38;97935.75;7356656;19;20034;-59
2023/03/31 00:54:48;;;;;;;0.00;0.00;;;;;;;12.67;74.19;97941.25;7351764;19;20006;-58
2023/03/31 00:57:14;;;;;;;0.00;0.00;;;;;;;12.64;74.80;97928.38;7353964;19;20103;-59
2023/03/31 00:59:46;;;;;;;0.00;0.00;;;;;;;12.63;74.65;97925.88;7353547;19;20014;-59
2023/03/31 01:02:13;;;;;;;0.00;0.00;;;;;;;12.58;74.94;97920.97;7354939;19;20784;-59
2023/03/31 01:04:45;;;;;;;0.00;0.00;;;;;;;12.50;74.56;97918.09;7351908;19;20029;-59
2023/03/31 01:07:25;;;;;;;0.03;0.03;;;;;;;12.59;74.01;97933.13;7355156;19;20014;-58
2023/03/31 01:09:53;;;;;;;0.00;0.00;;;;;;;12.55;74.41;97928.22;7354598;19;20470;-58
2023/03/31 01:12:21;;;;;;;0.10;0.10;;;;;;;12.53;74.32;97923.13;7353831;19;20030;-58
2023/03/31 01:14:49;;;;;;;0.10;0.10;;;;;;;12.51;74.45;97914.53;7350132;19;20017;-58
2023/03/31 01:17:17;;;;;;;0.10;0.10;;;;;;;12.48;74.99;97912.16;7352910;19;20010;-59
2023/03/31 01:19:46;;;;;;;0.10;0.10;;;;;;;12.46;75.20;97906.19;7354750;19;20010;-59
2023/03/31 01:22:36;;;;;;;0.00;0.00;;;;;;;12.37;74.58;97875.50;7352435;19;20097;-59
2023/03/31 01:25:26;;;;;;;0.10;0.10;;;;;;;12.47;74.11;97902.63;7248618;19;2005009;-59
2023/03/31 01:28:10;;;;;;;0.03;0.03;;;;;;;12.48;74.08;97898.25;7247320;19;2004418;-59
2023/03/31 01:31:04;;;;;;;0.10;0.10;;;;;;;12.46;74.77;97899.16;7349487;19;20033;-59
2023/03/31 01:33:52;;;;;;;0.03;0.03;;;;;;;12.46;74.82;97890.47;7249592;19;2004324;-59
2023/03/31 01:36:45;;;;;;;0.03;0.03;;;;;;;12.43;75.97;97890.72;7250805;19;2004540;-59
2023/03/31 01:39:43;;;;;;;0.10;0.10;;;;;;;12.38;74.86;97879.78;7248079;19;2004374;-59
2023/03/31 01:42:11;;;;;;;0.03;0.03;;;;;;;12.43;75.86;97891.56;7249797;19;2004284;-58
2023/03/31 01:44:53;;;;;;;0.10;0.10;;;;;;;12.45;75.29;97894.06;7353159;19;20026;-57
2023/03/31 01:47:33;;;;;;;0.00;0.00;;;;;;;12.42;76.23;97891.69;7356516;19;20026;-58
2023/03/31 01:50:23;;;;;;;0.00;0.00;;;;;;;12.42;75.89;97887.28;7352780;19;20021;-59
2023/03/31 01:53:07;;;;;;;0.00;0.00;;;;;;;12.43;75.72;97885.50;7353839;19;20594;-59
2023/03/31 01:55:38;;;;;;;0.00;0.00;;;;;;;12.41;75.95;97876.91;7351797;19;20553;-58
2023/03/31 01:58:31;;;;;;;0.00;0.00;;;;;;;12.44;74.83;97881.91;7343122;19;20040;-59
2023/03/31 02:01:19;;;;;;;0.00;0.00;;;;;;;12.42;75.98;97878.59;7251934;19;2004519;-59
2023/03/31 02:04:02;;;;;;;0.00;0.00;;;;;;;12.40;75.64;97876.06;7351217;19;20021;-59
2023/03/31 02:06:39;;;;;;;0.00;0.00;;;;;;;12.41;76.03;97876.91;7351359;19;20010;-59
2023/03/31 02:09:10;;;;;;;;;;;;;;;12.44;73.89;97880.13;7356954;19;20017;-59
2023/03/31 02:11:37;;;;;;;0.00;0.00;;;;;;;12.41;75.47;97876.91;7351519;19;20262;-59
2023/03/31 02:14:08;;;;;;;0.00;0.00;;;;;;;12.41;76.27;97877.72;7350597;19;20602;-59
2023/03/31 02:16:40;;;;;;;0.00;0.00;;;;;;;12.41;76.80;97877.72;7350077;19;20032;-58
2023/03/31 02:19:09;;;;;;;0.00;0.00;;;;;;;12.43;76.70;97875.03;7349163;19;20416;-59
2023/03/31 02:21:38;;;;;;;0.10;0.10;;;;;;;12.43;76.81;97875.03;7350045;19;20046;-57
2023/03/31 02:24:09;;;;;;;0.03;0.03;;;;;;;12.39;76.97;97865.72;7343900;19;20007;-60
2023/03/31 02:26:48;;;;;;;0.10;0.10;;;;;;;12.48;76.61;97878.13;7354601;19;20010;-59
2023/03/31 02:29:14;;;;;;;0.00;0.00;;;;;;;12.46;76.96;97874.78;7345320;19;20017;-59
2023/03/31 02:32:00;;;;;;;0.00;0.00;;;;;;;12.29;76.40;97835.97;7355987;19;20010;-59
2023/03/31 02:34:26;;;;;;;0.08;0.08;;;;;;;12.50;77.10;97878.84;7349586;19;20027;-59
2023/03/31 02:36:51;;;;;;;0.10;0.10;;;;;;;12.51;77.41;97880.50;7352037;19;20010;-58
2023/03/31 02:39:22;;;;;;;0.10;0.10;;;;;;;12.54;77.11;97875.03;7347591;19;20033;-59
2023/03/31 02:41:48;;;;;;;0.10;0.10;;;;;;;12.53;77.48;97870.75;7354168;19;20014;-58
2023/03/31 02:44:16;;;;;;;0.00;0.00;;;;;;;12.46;77.22;97861.69;7350310;19;20018;-59
2023/03/31 02:46:42;;;;;;;0.00;0.00;;;;;;;12.55;77.59;97876.69;7352538;19;20019;-58
2023/03/31 02:49:10;;;;;;;0.00;0.00;;;;;;;12.57;77.03;97874.81;7352464;19;20066;-59
2023/03/31 02:51:56;;;;;;;0.10;0.10;;;;;;;12.60;76.08;97871.13;7351848;19;20014;-59
2023/03/31 02:54:42;;;;;;;0.00;0.00;;;;;;;12.59;76.91;97870.28;7348962;19;20011;-59
2023/03/31 02:57:16;;;;;;;0.00;0.00;;;;;;;12.60;76.56;97871.13;7351973;19;20014;-58
2023/03/31 03:00:23;;;;;;;0.00;0.00;;;;;;;12.30;76.26;97816.69;7352579;19;20017;-59
2023/03/31 03:03:07;;;;;;;;;;;;;;;12.60;74.52;97865.88;7246673;19;2004949;-58
2023/03/31 03:05:48;;;;;;;0.00;0.00;;;;;;;12.58;76.37;97868.63;7333111;19;19914;-58
2023/03/31 03:08:35;;;;;;;0.00;0.00;;;;;;;12.58;76.16;97866.00;7350674;19;20703;-59
2023/03/31 03:11:20;;;;;;;0.10;0.10;;;;;;;12.56;76.44;97870.50;7352729;19;20809;-59
2023/03/31 03:13:54;;;;;;;0.00;0.00;;;;;;;12.51;76.91;97863.97;7351629;19;20027;-58
2023/03/31 03:16:27;;;;;;;0.10;0.10;;;;;;;12.52;77.13;97866.47;7352287;19;20018;-58
2023/03/31 03:19:01;;;;;;;0.00;0.00;;;;;;;12.52;77.33;97866.47;7339640;19;20351;-58
2023/03/31 03:21:27;;;;;;;0.00;0.00;;;;;;;12.51;77.63;97877.88;7347178;19;20027;-59
2023/03/31 03:23:53;;;;;;;0.10;0.10;;;;;;;12.36;77.40;97847.63;7349129;19;21173;-59
2023/03/31 03:26:27;;;;;;;0.10;0.10;;;;;;;12.51;77.41;97875.25;7354106;19;20018;-59
2023/03/31 03:28:54;;;;;;;0.10;0.10;;;;;;;12.51;77.62;97867.41;7355137;19;20010;-58
2023/03/31 03:31:22;;;;;;;0.08;0.08;;;;;;;12.49;77.56;97868.50;7350918;19;20061;-58
2023/03/31 03:33:48;;;;;;;0.00;0.00;;;;;;;12.53;77.61;97876.00;7354935;19;20014;-58
2023/03/31 03:36:13;;;;;;;0.10;0.10;;;;;;;12.54;78.07;97867.19;7348875;19;20034;-59
2023/03/31 03:38:39;;;;;;;0.10;0.10;;;;;;;12.56;78.01;97870.50;7354651;19;20026;-58
2023/03/31 03:41:04;;;;;;;0.00;0.00;;;;;;;12.57;77.93;97871.34;7353389;19;20023;-59
2023/03/31 03:43:30;;;;;;;0.10;0.10;;;;;;;12.58;77.79;97868.63;7354029;19;20027;-59
2023/03/31 03:45:55;;;;;;;0.00;0.00;;;;;;;12.57;78.01;97866.97;7358353;19;20055;-58
2023/03/31 03:48:21;;;;;;;0.00;0.00;;;;;;;12.61;77.92;97878.00;7361937;19;20411;-58
2023/03/31 03:50:47;;;;;;;0.03;0.03;;;;;;;12.63;78.01;97871.72;7352052;19;20768;-59
2023/03/31 03:53:13;;;;;;;0.10;0.10;;;;;;;12.62;78.24;97880.53;7361173;19;20030;-59
2023/03/31 03:55:39;;;;;;;0.10;0.10;;;;;;;12.66;78.11;97881.94;7359362;19;20737;-58
2023/03/31 03:58:05;;;;;;;0.00;0.00;;;;;;;12.67;78.07;97886.25;7356273;19;20038;-59
2023/03/31 04:00:31;;;;;;;0.00;0.00;;;;;;;12.70;78.27;97885.19;7359426;19;20292;-59
2023/03/31 04:02:57;;;;;;;0.10;0.10;;;;;;;12.69;77.94;97886.97;7360119;19;20035;-59
2023/03/31 04:05:22;;;;;;;0.00;0.00;;;;;;;12.72;77.77;97881.50;7357831;19;20372;-59
2023/03/31 04:07:48;;;;;;;0.10;0.10;;;;;;;12.74;77.76;97889.22;7360046;19;20665;-58
2023/03/31 04:10:13;;;;;;;0.10;0.10;;;;;;;12.75;78.10;97885.66;7359394;19;20014;-59
2023/03/31 04:12:39;;;;;;;0.03;0.03;;;;;;;12.71;77.82;97879.81;7358424;19;20613;-59
2023/03/31 04:15:05;;;;;;;0.00;0.00;;;;;;;12.71;78.17;97879.81;7355967;19;20030;-59
2023/03/31 04:17:36;;;;;;;0.10;0.10;;;;;;;12.75;78.14;97884.81;7359448;19;20070;-58
2023/03/31 04:20:10;;;;;;;0.10;0.10;;;;;;;12.71;77.51;97879.81;7360137;19;20482;-59
2023/03/31 04:22:39;;;;;;;0.00;0.00;;;;;;;12.82;78.14;97901.72;7357529;19;20685;-59
2023/03/31 04:25:13;;;;;;;0.00;0.00;;;;;;;12.82;77.91;97897.31;7359217;19;20039;-58
2023/03/31 04:27:45;;;;;;;0.10;0.10;;;;;;;12.83;77.71;97892.94;7356540;19;20027;-59
2023/03/31 04:30:21;;;;;;;0.10;0.10;;;;;;;12.83;77.73;97900.81;7361541;19;20482;-58
2023/03/31 04:32:57;;;;;;;0.00;0.00;;;;;;;12.84;77.71;97900.66;7356826;19;20103;-58
2023/03/31 04:35:25;;;;;;;0.10;0.10;;;;;;;12.84;77.92;97905.06;7357514;19;20952;-58
2023/03/31 04:37:57;;;;;;;0.10;0.10;;;;;;;12.76;77.77;97907.44;7359161;19;20011;-59
2023/03/31 04:40:23;;;;;;;0.10;0.10;;;;;;;12.84;77.87;97910.31;7358832;19;20010;-59
2023/03/31 04:42:48;;;;;;;0.10;0.10;;;;;;;12.86;78.07;97911.03;7359355;19;20014;-59
2023/03/31 04:45:14;;;;;;;0.10;0.10;;;;;;;12.86;78.05;97913.63;7357890;19;20038;-58
2023/03/31 04:47:39;;;;;;;0.00;0.00;;;;;;;12.87;77.74;97910.06;7359725;19;20666;-59
2023/03/31 04:50:06;;;;;;;0.10;0.10;;;;;;;12.87;77.78;97920.53;7358541;19;20014;-59
2023/03/31 04:52:31;;;;;;;0.00;0.00;;;;;;;12.88;77.94;97922.22;7359375;19;20395;-58
2023/03/31 04:54:56;;;;;;;0.00;0.00;;;;;;;12.85;77.85;97918.03;7356416;19;20037;-59
2023/03/31 04:57:22;;;;;;;0.10;0.10;;;;;;;12.87;77.73;97926.59;7353562;19;20010;-59
2023/03/31 04:59:47;;;;;;;0.00;0.00;;;;;;;12.88;77.88;97933.53;7358822;19;20014;-59
2023/03/31 05:02:14;;;;;;;0.00;0.00;;;;;;;12.88;77.81;97927.47;7356040;19;20010;-59
2023/03/31 05:04:40;;;;;;;0.00;0.00;;;;;;;12.79;77.58;97922.94;7359122;19;20118;-59
2023/03/31 05:07:05;;;;;;;0.10;0.10;;;;;;;12.87;77.68;97931.00;7358020;19;20456;-59
2023/03/31 05:09:30;;;;;;;0.10;0.10;;;;;;;12.90;77.65;97941.28;7357753;19;20035;-59
2023/03/31 05:11:56;;;;;;;0.00;0.00;;;;;;;12.58;78.01;97892.19;7349909;19;20006;-59
2023/03/31 05:14:22;;;;;;;0.10;0.10;;;;;;;12.79;77.93;97929.00;7358200;19;20757;-58
2023/03/31 05:16:47;;;;;;;0.00;0.00;;;;;;;12.90;78.02;97941.28;7354287;19;20085;-59
2023/03/31 05:19:13;;;;;;;0.10;0.10;;;;;;;12.90;77.83;97947.34;7358378;19;20090;-59
2023/03/31 05:21:38;;;;;;;0.03;0.03;;;;;;;12.90;77.75;97951.75;7358213;19;20383;-59
2023/03/31 05:24:04;;;;;;;0.10;0.10;;;;;;;12.91;77.98;97948.16;7356852;19;20002;-57
2023/03/31 05:26:29;;;;;;;0.00;0.00;;;;;;;12.91;77.91;97953.41;7360673;19;20595;-59
2023/03/31 05:28:55;;;;;;;0.10;0.10;;;;;;;12.91;77.98;97958.66;7356671;19;20086;-58
2023/03/31 05:31:21;;;;;;;0.00;0.00;;;;;;;12.81;77.78;97948.03;7356830;19;20010;-59
2023/03/31 05:33:50;;;;;;;0.05;0.05;;;;;;;12.91;78.17;97971.75;7356221;19;20119;-58
2023/03/31 05:36:16;;;;;;;0.00;0.00;;;;;;;12.90;77.88;97972.69;7360160;19;20002;-59
2023/03/31 05:38:42;;;;;;;0.00;0.00;;;;;;;12.92;77.85;97976.03;7359947;19;20062;-59
2023/03/31 05:41:09;;;;;;;0.10;0.10;;;;;;;12.79;77.86;97954.34;7352997;19;26699;-59
2023/03/31 05:43:36;;;;;;;0.10;0.10;;;;;;;12.93;77.95;97980.34;7357749;19;20066;-58
2023/03/31 05:46:02;;;;;;;0.10;0.10;;;;;;;12.87;77.63;97979.00;7358446;19;20023;-58
2023/03/31 05:48:28;;;;;;;0.00;0.00;;;;;;;12.94;77.84;97989.84;7357041;19;20045;-59
2023/03/31 05:50:57;;;;;;;0.00;0.00;;;;;;;12.91;77.61;97990.06;7357489;19;20086;-59
2023/03/31 05:53:23;;;;;;;0.10;0.10;;;;;;;12.93;77.81;98003.91;7357626;19;20712;-59
2023/03/31 05:55:49;;;;;;;0.10;0.10;;;;;;;12.94;77.84;98010.81;7354426;19;20021;-59
2023/03/31 05:58:14;;;;;;;0.10;0.10;;;;;;;12.93;78.15;98014.38;7346905;19;21454;-59
2023/03/31 06:00:40;;;;;;;0.00;0.00;;;;;;;12.94;77.76;98023.91;7353685;19;20617;-59
2023/03/31 06:03:06;;;;;;;0.10;0.10;;;;;;;12.86;77.77;98008.75;7354574;19;20019;-59
2023/03/31 06:05:33;;;;;;;0.00;0.00;;;;;;;12.93;78.16;98030.09;7348920;19;20014;-59
2023/03/31 06:07:59;;;;;;;0.10;0.10;;;;;;;12.92;77.77;98033.66;7351060;19;20023;-59
2023/03/31 06:10:24;;;;;;;0.10;0.10;;;;;;;12.94;78.17;98042.25;7349761;19;20014;-59
2023/03/31 06:12:50;;;;;;;0.05;0.05;;;;;;;12.90;77.96;98044.25;7348820;19;20018;-59
2023/03/31 06:15:16;;;;;;;0.10;0.10;;;;;;;12.94;77.83;98053.56;7344621;19;20011;-59
2023/03/31 06:17:41;;;;;;;0.10;0.10;;;;;;;12.95;78.05;98059.63;7355649;19;20043;-59
2023/03/31 06:20:07;;;;;;;0.00;0.00;;;;;;;12.95;77.78;98057.84;7349377;19;20020;-59
2023/03/31 06:22:32;;;;;;;0.00;0.00;;;;;;;12.96;77.84;98053.44;7352902;19;20938;-59
2023/03/31 06:24:58;;;;;;;0.10;0.10;;;;;;;12.96;77.66;98059.50;7350212;19;20019;-59
2023/03/31 06:27:23;;;;;;;0.00;0.00;;;;;;;12.78;77.77;98034.69;7355849;19;20021;-58
2023/03/31 06:29:49;;;;;;;0.00;0.00;;;;;;;12.95;78.24;98070.09;7352004;19;20848;-59
2023/03/31 06:32:14;;;;;;;0.10;0.10;;;;;;;12.95;77.95;98070.09;7350144;19;20010;-59
2023/03/31 06:34:40;;;;;;;0.10;0.10;;;;;;;12.94;77.77;98069.28;7354438;19;20010;-59
2023/03/31 06:37:05;;;;;;;0.00;0.00;;;;;;;12.96;78.12;98082.25;7355228;19;20010;-59
2023/03/31 06:39:31;;;;;;;0.00;0.00;;;;;;;12.92;77.93;98078.19;7349687;19;20015;-60
2023/03/31 06:41:56;;;;;;;0.00;0.00;;;;;;;12.97;77.75;98089.16;7353540;19;20011;-59
2023/03/31 06:44:23;;;;;;;0.00;0.00;;;;;;;12.98;78.09;98096.09;7349744;19;20050;-59
2023/03/31 06:46:48;;;;;;;0.10;0.10;;;;;;;12.99;77.76;98103.00;7340213;19;20540;-59
2023/03/31 06:49:14;;;;;;;0.00;0.00;;;;;;;13.00;77.84;98104.66;7346728;19;20011;-59
2023/03/31 06:51:39;;;;;;;0.05;0.05;;;;;;;13.02;78.05;98109.75;7353465;19;20021;-59
2023/03/31 06:54:05;;;;;;;0.03;0.03;;;;;;;12.71;77.95;98068.34;7348157;19;20606;-60
2023/03/31 06:56:30;;;;;;;0.10;0.10;;;;;;;13.06;78.23;98125.16;7351726;19;20015;-59
2023/03/31 06:58:56;;;;;;;0.10;0.10;;;;;;;13.06;77.71;98127.78;7348575;19;20007;-58
2023/03/31 07:01:21;;;;;;;0.10;0.10;;;;;;;13.06;78.03;98130.38;7353646;19;20078;-59
2023/03/31 07:03:46;;;;;;;0.10;0.10;;;;;;;13.09;77.98;98124.94;7350682;19;20430;-59
2023/03/31 07:06:12;;;;;;;0.00;0.00;;;;;;;13.09;78.00;98134.59;7329472;19;20014;-58
2023/03/31 07:08:37;;;;;;;0.10;0.10;;;;;;;13.10;77.73;98137.06;7347402;19;20093;-59
2023/03/31 07:11:03;;;;;;;0.00;0.00;;;;;;;13.13;77.91;98147.34;7328335;19;20011;-59
2023/03/31 07:13:28;;;;;;;0.00;0.00;;;;;;;13.12;77.65;98145.66;7341842;19;20015;-59
2023/03/31 07:15:54;;;;;;;0.03;0.03;;;;;;;13.14;77.69;98154.25;7340292;19;20109;-59
2023/03/31 07:18:20;;;;;;;0.10;0.10;;;;;;;13.17;77.69;98158.41;7345514;19;20653;-59
2023/03/31 07:20:49;;;;;;;0.03;0.03;;;;;;;13.21;77.68;98165.97;7341775;19;20006;-59
2023/03/31 07:23:15;;;;;;;0.03;0.03;;;;;;;13.17;77.92;98159.25;7348406;19;20568;-59
2023/03/31 07:25:40;;;;;;;0.10;0.10;;;;;;;13.22;77.86;98172.03;7349588;19;20017;-59
2023/03/31 07:28:06;;;;;;;0.08;0.08;;;;;;;13.24;77.69;98175.41;7349891;19;20858;-59
2023/03/31 07:30:31;;;;;;;0.00;0.00;;;;;;;13.26;77.49;98177.91;7352373;19;20794;-59
2023/03/31 07:32:57;;;;;;;0.10;0.10;;;;;;;13.20;77.78;98176.53;7350185;19;20722;-59
2023/03/31 07:35:23;;;;;;;0.10;0.10;;;;;;;13.30;77.66;98187.22;7346386;19;20002;-59
2023/03/31 07:37:50;;;;;;;0.00;0.00;;;;;;;13.32;77.52;98198.41;7347273;19;20011;-58
2023/03/31 07:40:27;;;;;;;0.00;0.00;;;;;;;13.36;77.16;98199.88;7351670;19;20775;-59
2023/03/31 07:42:53;;;;;;;0.00;0.00;;;;;;;13.34;77.34;98205.22;7350856;19;20018;-59
2023/03/31 07:45:20;;;;;;;0.00;0.00;;;;;;;13.34;77.78;98207.03;7349494;19;20014;-59
2023/03/31 07:47:46;;;;;;;0.05;0.05;;;;;;;13.37;77.35;98212.00;7341230;19;20015;-59
2023/03/31 07:50:14;;;;;;;0.10;0.10;;;;;;;13.38;77.58;98204.06;7348959;19;20036;-59
2023/03/31 07:52:40;;;;;;;0.08;0.08;;;;;;;13.35;77.46;98208.69;7350000;19;20014;-59
2023/03/31 07:55:07;;;;;;;0.05;0.05;;;;;;;13.40;77.56;98223.13;7351402;19;20741;-59
2023/03/31 07:57:33;;;;;;;0.00;0.00;;;;;;;13.36;77.58;98218.22;7350345;19;20017;-59
2023/03/31 07:59:58;;;;;;;0.00;0.00;;;;;;;13.43;77.64;98227.28;7347815;19;20027;-59
2023/03/31 08:02:24;;;;;;;0.00;0.00;;;;;;;13.42;77.75;98231.69;7351403;19;20028;-60
2023/03/31 08:04:49;;;;;;;0.10;0.10;;;;;;;13.45;77.51;98241.97;7349071;19;20025;-59
2023/03/31 08:07:15;;;;;;;0.00;0.00;;;;;;;13.46;77.65;98243.63;7349664;19;20034;-59
2023/03/31 08:09:43;;;;;;;0.10;0.10;;;;;;;13.45;77.35;98249.84;7352373;19;20011;-59
2023/03/31 08:12:09;;;;;;;0.00;0.00;;;;;;;13.50;77.63;98254.75;7350525;19;20902;-59
2023/03/31 08:14:34;;;;;;;0.00;0.00;;;;;;;13.51;77.58;98264.28;7351510;19;20009;-60
2023/03/31 08:17:00;;;;;;;0.00;0.00;;;;;;;13.51;77.29;98261.66;7351065;19;20006;-59
2023/03/31 08:19:26;;;;;;;0.00;0.00;;;;;;;13.53;77.12;98270.22;7351170;19;20023;-60
2023/03/31 08:21:53;;;;;;;0.05;0.05;;;;;;;13.56;77.14;98270.00;7350420;19;20026;-59
2023/03/31 08:24:18;;;;;;;0.00;0.00;;;;;;;13.55;77.42;98273.59;7350934;19;20577;-59
2023/03/31 08:26:44;;;;;;;0.10;0.10;;;;;;;13.55;77.44;98278.84;7349783;19;20074;-59
2023/03/31 08:29:10;;;;;;;0.10;0.10;;;;;;;13.56;77.21;98285.75;7350890;19;20006;-59
2023/03/31 08:31:35;;;;;;;0.00;0.00;;;;;;;13.57;77.39;98287.41;7351621;19;20068;-59
2023/03/31 08:34:01;;;;;;;0.10;0.10;;;;;;;13.57;77.03;98297.91;7351079;19;20014;-59
2023/03/31 08:36:27;;;;;;;0.10;0.10;;;;;;;13.56;77.33;98296.22;7351416;19;20023;-59
2023/03/31 08:38:53;;;;;;;0.10;0.10;;;;;;;13.58;77.44;98293.50;7349190;19;20018;-59
2023/03/31 08:41:30;;;;;;;0.00;0.00;;;;;;;13.61;76.86;98294.13;7350482;19;20749;-59
2023/03/31 08:43:57;;;;;;;;;;;;;;;13.63;76.06;98302.69;7351433;19;20035;-59
2023/03/31 08:46:24;;;;;;;0.08;0.08;;;;;;;13.57;77.11;98305.78;7347768;19;19937;-58
2023/03/31 08:48:53;;;;;;;0.00;0.00;;;;;;;13.61;76.97;98311.63;7347274;19;20822;-59
2023/03/31 08:51:27;;;;;;;0.10;0.10;;;;;;;13.61;77.40;98314.25;7347187;19;20321;-59
2023/03/31 08:54:02;;;;;;;0.03;0.03;;;;;;;13.61;77.07;98315.09;7348024;19;20581;-59
2023/03/31 08:56:29;;;;;;;0.03;0.03;;;;;;;13.59;77.30;98321.41;7349658;19;20023;-59
2023/03/31 08:59:00;;;;;;;0.10;0.10;;;;;;;13.59;77.13;98317.00;7349006;19;20009;-59
2023/03/31 09:01:31;;;;;;;0.00;0.00;;;;;;;13.62;77.46;98322.00;7347338;19;20021;-59
2023/03/31 09:04:31;;;;;;;0.00;0.00;;;;;;;13.65;77.04;98329.66;7348740;19;20016;-59
2023/03/31 09:07:11;;;;;;;0.10;0.10;;;;;;;13.68;77.24;98333.81;7245114;19;2004234;-59
2023/03/31 09:10:02;;;;;;;0.00;0.00;;;;;;;13.72;77.04;98330.03;7348100;19;20018;-59
2023/03/31 09:12:49;;;;;;;0.10;0.10;;;;;;;13.72;77.60;98341.34;7349170;19;20491;-59
2023/03/31 09:15:41;;;;;;;0.10;0.10;;;;;;;13.81;77.08;98336.41;7348408;19;20146;-58
2023/03/31 09:18:26;;;;;;;0.10;0.10;;;;;;;13.85;76.87;98343.09;7247899;19;2004466;-59
2023/03/31 09:20:55;;;;;;;0.10;0.10;;;;;;;13.84;77.26;98352.75;7347336;19;20014;-59
2023/03/31 09:23:35;;;;;;;0.10;0.10;;;;;;;13.90;76.62;98356.72;7347474;19;20018;-59
2023/03/31 09:26:03;;;;;;;0.10;0.10;;;;;;;13.90;77.33;98356.72;7349342;19;20015;-59
2023/03/31 09:28:37;;;;;;;0.10;0.10;;;;;;;13.94;76.86;98363.41;7348216;19;20034;-59
2023/03/31 09:31:13;;;;;;;0.08;0.08;;;;;;;13.96;76.83;98370.22;7347230;19;20426;-59
2023/03/31 09:33:43;;;;;;;0.08;0.08;;;;;;;13.90;77.04;98357.56;7347769;19;20762;-59
2023/03/31 09:36:15;;;;;;;0.10;0.10;;;;;;;14.03;76.70;98374.03;7347930;19;20020;-59
2023/03/31 09:38:44;;;;;;;0.00;0.00;;;;;;;14.05;76.80;98381.00;7346162;19;20010;-59
2023/03/31 09:41:12;;;;;;;0.10;0.10;;;;;;;14.09;77.29;98385.91;7348643;19;20016;-59
2023/03/31 09:43:40;;;;;;;0.10;0.10;;;;;;;14.08;77.22;98380.75;7344964;19;20030;-59
2023/03/31 09:46:34;;;;;;;0.10;0.10;;;;;;;14.20;76.49;98396.44;7349174;19;20039;-59
2023/03/31 09:49:04;;;;;;;0.03;0.03;;;;;;;14.19;77.00;98400.00;7245128;19;2004402;-59
2023/03/31 09:51:36;;;;;;;0.10;0.10;;;;;;;14.24;76.58;98402.28;7347202;19;20026;-59
2023/03/31 09:54:28;;;;;;;0.10;0.10;;;;;;;14.28;76.49;98409.81;7346471;19;20018;-59
2023/03/31 09:56:54;;;;;;;0.10;0.10;;;;;;;14.26;76.69;98409.09;7245150;19;2004546;-59
2023/03/31 09:59:31;;;;;;;0.10;0.10;;;;;;;14.33;76.58;98421.75;7347017;19;20616;-60
2023/03/31 10:02:01;;;;;;;0.03;0.03;;;;;;;14.21;76.64;98408.59;7346972;19;20018;-59
2023/03/31 10:04:30;;;;;;;0.10;0.10;;;;;;;14.32;76.85;98435.84;7347895;19;20042;-59
2023/03/31 10:06:58;;;;;;;0.00;0.00;;;;;;;14.33;76.39;98438.34;7347291;19;20030;-59
2023/03/31 10:09:27;;;;;;;0.10;0.10;;;;;;;14.33;76.46;98437.50;7348534;19;20019;-59
2023/03/31 10:12:06;;;;;;;0.10;0.10;;;;;;;14.36;76.12;98439.94;7347246;19;20040;-59
2023/03/31 10:14:43;;;;;;;0.10;0.10;;;;;;;14.36;76.46;98447.81;7347322;19;20014;-62
2023/03/31 10:17:12;;;;;;;;;;;;;;;14.40;75.64;98450.09;7348534;19;20022;-60
2023/03/31 10:19:47;;;;;;;0.00;0.00;;;;;;;14.03;76.26;98388.94;7347844;19;20831;-59
2023/03/31 10:22:26;;;;;;;0.10;0.10;;;;;;;14.40;76.38;98457.97;7344908;19;20014;-59
2023/03/31 10:24:52;;;;;;;0.10;0.10;;;;;;;14.37;76.50;98457.34;7346170;19;20514;-59
2023/03/31 10:27:27;;;;;;;0.10;0.10;;;;;;;14.43;76.35;98464.75;7346193;19;22529;-59
2023/03/31 10:29:58;;;;;;;0.10;0.10;;;;;;;14.42;76.56;98463.09;7346598;19;20014;-59
2023/03/31 10:32:29;;;;;;;0.10;0.10;;;;;;;14.44;76.50;98471.69;7346675;19;20014;-59
2023/03/31 10:34:57;;;;;;;0.10;0.10;;;;;;;14.46;76.62;98481.13;7345074;19;20042;-59
2023/03/31 10:37:26;;;;;;;0.10;0.10;;;;;;;14.36;76.76;98458.31;7345750;19;20035;-59
2023/03/31 10:40:00;;;;;;;0.10;0.10;;;;;;;14.54;76.54;98489.31;7345814;19;20099;-59
2023/03/31 10:42:27;;;;;;;0.10;0.10;;;;;;;14.53;76.50;98486.78;7346308;19;20010;-59
2023/03/31 10:45:20;;;;;;;0.10;0.10;;;;;;;14.59;76.17;98496.84;7344492;19;20030;-59
2023/03/31 10:47:48;;;;;;;0.10;0.10;;;;;;;14.59;76.77;98499.47;7346209;19;20006;-59
2023/03/31 10:50:15;;;;;;;0.00;0.00;;;;;;;14.57;76.60;98504.00;7345383;19;20042;-60
2023/03/31 10:52:46;;;;;;;0.10;0.10;;;;;;;14.61;76.20;98504.63;7345969;19;20021;-59
2023/03/31 10:55:16;;;;;;;0.00;0.00;;;;;;;14.50;76.48;98492.28;7348910;19;20025;-59
2023/03/31 10:57:53;;;;;;;0.10;0.10;;;;;;;14.60;76.06;98509.03;7353676;19;20845;-60
2023/03/31 11:00:41;;;;;;;0.10;0.10;;;;;;;14.61;75.86;98510.72;7353531;19;20014;-59
2023/03/31 11:03:20;;;;;;;0.10;0.10;;;;;;;14.61;76.17;98521.22;7351357;19;20014;-59
2023/03/31 11:05:58;;;;;;;0.00;0.00;;;;;;;14.61;76.53;98528.28;7352798;19;20019;-59
2023/03/31 11:08:36;;;;;;;0.00;0.00;;;;;;;14.57;76.32;98532.91;7353429;19;20397;-59
2023/03/31 11:11:20;;;;;;;0.10;0.10;;;;;;;14.58;76.70;98534.56;7352040;19;20078;-59
2023/03/31 11:14:15;;;;;;;0.10;0.10;;;;;;;14.62;76.12;98535.19;7350991;19;20010;-59
2023/03/31 11:17:16;;;;;;;0.10;0.10;;;;;;;14.61;76.20;98542.22;7252772;19;2004302;-59
2023/03/31 11:20:11;;;;;;;0.10;0.10;;;;;;;14.63;75.96;98550.81;7250069;19;2004429;-59
2023/03/31 11:22:47;;;;;;;0.08;0.08;;;;;;;14.62;76.54;98554.41;7243325;19;2004398;-59
2023/03/31 11:25:38;;;;;;;0.10;0.10;;;;;;;14.62;76.35;98557.03;7348913;19;20040;-59
2023/03/31 11:28:23;;;;;;;0.08;0.08;;;;;;;14.61;76.41;98562.41;7239960;19;2004495;-59
2023/03/31 11:31:27;;;;;;;0.10;0.10;;;;;;;14.65;76.23;98564.72;7350027;19;20022;-59
2023/03/31 11:34:13;;;;;;;0.03;0.03;;;;;;;14.61;76.71;98573.75;7249140;19;2004457;-59
2023/03/31 11:36:49;;;;;;;0.10;0.10;;;;;;;14.61;76.88;98576.38;7347512;19;20010;-59
2023/03/31 11:39:33;;;;;;;0.00;0.00;;;;;;;14.68;76.00;98585.47;7348015;19;20025;-58
2023/03/31 11:42:05;;;;;;;0.10;0.10;;;;;;;14.67;76.64;98589.06;7348711;19;20033;-59
2023/03/31 11:44:40;;;;;;;0.10;0.10;;;;;;;14.70;76.60;98586.22;7347252;19;20438;-59
2023/03/31 11:47:12;;;;;;;0.10;0.10;;;;;;;14.60;76.64;98574.72;7351872;19;20070;-59
2023/03/31 11:49:43;;;;;;;0.00;0.00;;;;;;;14.74;76.87;98606.03;7350166;19;20022;-59
2023/03/31 11:52:24;;;;;;;0.10;0.10;;;;;;;14.79;76.76;98598.66;7351637;19;20014;-59
2023/03/31 11:54:58;;;;;;;0.10;0.10;;;;;;;14.82;76.68;98602.03;7348876;19;20011;-59